Terminal Aerodrome Forecast
Issued by NWS Cleveland, OH

Home | Current Version | Previous Version | Graphics & Text | Print | Product List | Glossary On
Versions: 1 2 3 4 5 6 7 8 9 10 11 12 13 14 15 16 17 18 19 20 21 22 23
000
FTUS41 KCLE 181436 AAA
TAFCLE
TAF AMD
KCLE 181436Z 1815/1918 23014G22KT P6SM SKC
     FM190300 22012KT P6SM SCT200 WS020/26045KT
     FM191100 21012KT P6SM BKN200=

USA.gov is the U.S. government's official web portal to all federal, state and local government web resources and services.